Time;durP1;ratioP1;P1;durP2;ratioP2;P2;SDS_P1;SDS_P2;PMS_P1;PMS_P2;Temp;Humidity;BMP_temperature;BMP_pressure;BME280_temperature;BME280_humidity;BME280_pressure;Samples;Min_cycle;Max_cycle;Signal;HPM_P1;HPM_P2
2021/08/21 00:02:23;;;;;;;;;;;12.00;93.20;;;;;;5052891;28;20377;-65
2021/08/21 00:04:51;;;;;;;;;;;12.00;93.10;;;;;;5052425;28;19917;-65
2021/08/21 00:07:16;;;;;;;;;;;12.00;93.10;;;;;;5052393;28;20115;-63
2021/08/21 00:09:42;;;;;;;;;;;11.90;93.10;;;;;;5052545;28;19917;-64
2021/08/21 00:12:07;;;;;;;;;;;11.90;93.10;;;;;;5052560;28;20007;-64
2021/08/21 00:14:34;;;;;;;;;;;11.80;93.20;;;;;;5052736;28;19959;-64
2021/08/21 00:17:00;;;;;;;;;;;11.80;93.20;;;;;;5052109;28;19916;-64
2021/08/21 00:19:25;;;;;;;;;;;11.80;93.30;;;;;;5052783;28;20492;-64
2021/08/21 00:21:51;;;;;;;;;;;11.80;93.30;;;;;;5052423;28;19924;-63
2021/08/21 00:24:16;;;;;;;;;;;11.80;93.30;;;;;;5052102;28;19940;-62
2021/08/21 00:26:44;;;;;;;;;;;11.70;93.30;;;;;;5051702;28;22383;-64
2021/08/21 00:29:10;;;;;;;;;;;11.70;93.30;;;;;;5051781;28;19917;-65
2021/08/21 00:31:35;;;;;;;;;;;11.60;93.30;;;;;;5050793;28;19950;-65
2021/08/21 00:34:01;;;;;;;;;;;11.60;93.30;;;;;;5051237;28;19953;-63
2021/08/21 00:36:27;;;;;;;;;;;11.60;93.30;;;;;;5051093;28;20051;-63
2021/08/21 00:38:53;;;;;;;;;;;11.60;93.40;;;;;;5050223;28;19999;-64
2021/08/21 00:41:18;;;;;;;;;;;11.60;93.50;;;;;;5052083;28;20007;-64
2021/08/21 00:43:44;;;;;;;;;;;11.60;93.50;;;;;;5051771;28;20369;-64
2021/08/21 00:46:09;;;;;;;;;;;11.50;93.40;;;;;;5052327;28;19917;-64
2021/08/21 00:48:35;;;;;;;;;;;11.50;93.40;;;;;;5051708;28;20431;-65
2021/08/21 00:51:02;;;;;;;;;;;11.50;93.30;;;;;;5051599;28;20348;-64
2021/08/21 00:53:30;;;;;;;;;;;11.50;93.40;;;;;;5050597;28;19917;-63
2021/08/21 00:55:55;;;;;;;;;;;11.40;93.50;;;;;;5034434;28;19917;-64
2021/08/21 00:58:22;;;;;;;;;;;11.40;93.50;;;;;;5049918;28;19965;-65
2021/08/21 01:00:49;;;;;;;;;;;11.40;93.40;;;;;;5050441;28;19916;-63
2021/08/21 01:03:15;;;;;;;;;;;11.40;93.50;;;;;;5050124;28;20292;-64
2021/08/21 01:05:41;;;;;;;;;;;11.30;93.50;;;;;;5051893;28;19917;-65
2021/08/21 01:08:06;;;;;;;;;;;11.30;93.70;;;;;;5050262;28;20480;-65
2021/08/21 01:10:45;;;;;;;;;;;11.30;93.60;;;;;;5050028;28;20377;-64
2021/08/21 01:13:11;;;;;;;;;;;11.30;93.60;;;;;;5050476;28;19917;-63
2021/08/21 01:15:37;;;;;;;;;;;11.30;93.60;;;;;;5050485;28;20000;-65
2021/08/21 01:18:09;;;;;;;;;;;11.30;93.60;;;;;;5051649;28;19917;-64
2021/08/21 01:20:35;;;;;;;;;;;11.30;93.60;;;;;;5050017;28;19927;-65
2021/08/21 01:23:02;;;;;;;;;;;11.20;93.60;;;;;;5050139;28;19921;-64
2021/08/21 01:25:41;;;;;;;;;;;11.20;93.70;;;;;;5050491;28;20331;-63
2021/08/21 01:28:10;;;;;;;;;;;11.20;93.60;;;;;;5049609;28;20407;-63
2021/08/21 01:30:46;;;;;;;;;;;11.20;93.60;;;;;;5050226;28;19920;-65
2021/08/21 01:33:17;;;;;;;;;;;11.10;93.60;;;;;;5050010;28;19921;-64
2021/08/21 01:35:42;;;;;;;;;;;11.10;93.60;;;;;;5050134;28;19924;-64
2021/08/21 01:38:09;;;;;;;;;;;11.10;93.60;;;;;;5049611;28;20184;-64
2021/08/21 01:40:49;;;;;;;;;;;11.00;93.60;;;;;;5053650;28;20383;-63
2021/08/21 01:43:15;;;;;;;;;;;11.00;93.60;;;;;;5053769;28;19952;-64
2021/08/21 01:45:47;;;;;;;;;;;11.00;93.60;;;;;;5038436;28;19995;-64
2021/08/21 01:48:13;;;;;;;;;;;11.00;93.60;;;;;;5053965;28;19921;-64
2021/08/21 01:50:39;;;;;;;;;;;10.90;93.70;;;;;;5070270;28;19917;-65
2021/08/21 01:53:11;;;;;;;;;;;11.00;93.70;;;;;;5053997;28;19917;-64
2021/08/21 01:55:37;;;;;;;;;;;10.90;93.70;;;;;;5054997;28;19948;-64
2021/08/21 01:58:16;;;;;;;;;;;10.90;93.70;;;;;;5053556;28;19917;-63
2021/08/21 02:00:59;;;;;;;;;;;10.90;93.70;;;;;;5053478;28;19924;-65
2021/08/21 02:03:27;;;;;;;;;;;10.80;93.70;;;;;;5053782;28;19968;-64
2021/08/21 02:05:52;;;;;;;;;;;10.80;93.70;;;;;;5053394;28;20397;-63
2021/08/21 02:08:21;;;;;;;;;;;10.80;93.70;;;;;;5053409;28;19920;-63
2021/08/21 02:10:47;;;;;;;;;;;10.80;93.70;;;;;;5054046;28;19921;-64
2021/08/21 02:13:14;;;;;;;;;;;10.70;93.70;;;;;;5053314;28;20540;-65
2021/08/21 02:15:39;;;;;;;;;;;10.70;93.80;;;;;;5055077;28;19935;-65
2021/08/21 02:18:05;;;;;;;;;;;10.70;93.80;;;;;;5053348;28;19917;-63
2021/08/21 02:20:49;;;;;;;;;;;10.70;93.70;;;;;;5054512;28;20395;-64
2021/08/21 02:23:21;;;;;;;;;;;10.60;93.70;;;;;;5053427;28;19920;-65
2021/08/21 02:25:55;;;;;;;;;;;10.60;93.80;;;;;;5052943;28;19940;-64
2021/08/21 02:28:21;;;;;;;;;;;10.60;93.80;;;;;;5053111;28;20262;-65
2021/08/21 02:30:47;;;;;;;;;;;10.60;93.80;;;;;;5052798;28;19923;-65
2021/08/21 02:33:12;;;;;;;;;;;10.60;93.80;;;;;;5054748;28;19956;-64
2021/08/21 02:35:39;;;;;;;;;;;10.50;93.80;;;;;;5054602;28;19936;-65
2021/08/21 02:38:05;;;;;;;;;;;11.00;93.90;;;;;;5052452;28;19916;-63
2021/08/21 02:40:30;;;;;;;;;;;10.50;93.80;;;;;;5053059;28;19947;-65
2021/08/21 02:42:56;;;;;;;;;;;10.50;93.80;;;;;;5054161;28;19921;-66
2021/08/21 02:45:22;;;;;;;;;;;10.40;93.80;;;;;;5053031;28;20293;-65
2021/08/21 02:47:48;;;;;;;;;;;10.40;93.80;;;;;;5054022;28;19929;-63
2021/08/21 02:50:13;;;;;;;;;;;10.40;93.90;;;;;;5053833;28;19979;-63
2021/08/21 02:52:39;;;;;;;;;;;10.40;94.10;;;;;;5051836;28;19966;-65
2021/08/21 02:55:05;;;;;;;;;;;10.40;94.10;;;;;;5052906;28;20316;-65
2021/08/21 02:57:33;;;;;;;;;;;10.40;94.00;;;;;;5052315;28;20424;-65
2021/08/21 02:59:59;;;;;;;;;;;10.40;94.00;;;;;;5052709;28;19948;-65
2021/08/21 03:02:34;;;;;;;;;;;10.40;94.00;;;;;;5068943;28;19920;-65
2021/08/21 03:05:00;;;;;;;;;;;10.30;93.90;;;;;;5052672;28;19916;-65
2021/08/21 03:07:28;;;;;;;;;;;10.30;93.90;;;;;;5051857;28;19916;-65
2021/08/21 03:09:56;;;;;;;;;;;10.30;94.00;;;;;;5052412;28;19924;-64
2021/08/21 03:12:33;;;;;;;;;;;10.30;93.90;;;;;;5052617;28;19925;-64
2021/08/21 03:15:02;;;;;;;;;;;10.30;93.90;;;;;;5052051;28;19917;-64
2021/08/21 03:17:28;;;;;;;;;;;10.30;93.90;;;;;;5052194;28;19998;-64
2021/08/21 03:19:54;;;;;;;;;;;10.20;94.00;;;;;;5053656;28;19951;-65
2021/08/21 03:22:19;;;;;;;;;;;10.20;94.00;;;;;;5051841;28;19921;-66
2021/08/21 03:24:46;;;;;;;;;;;10.20;94.00;;;;;;5052331;28;20451;-65
2021/08/21 03:27:12;;;;;;;;;;;10.20;94.00;;;;;;5051701;28;19952;-64
2021/08/21 03:29:40;;;;;;;;;;;10.10;94.10;;;;;;5053623;28;19917;-64
2021/08/21 03:32:10;;;;;;;;;;;10.10;94.20;;;;;;5052307;28;20284;-65
2021/08/21 03:34:37;;;;;;;;;;;10.10;94.10;;;;;;5051970;28;19917;-64
2021/08/21 03:37:03;;;;;;;;;;;10.10;94.10;;;;;;5051803;28;19917;-64
2021/08/21 03:39:31;;;;;;;;;;;10.10;94.20;;;;;;5051768;28;19919;-65
2021/08/21 03:41:57;;;;;;;;;;;10.10;94.10;;;;;;5051775;28;19921;-65
2021/08/21 03:44:23;;;;;;;;;;;10.10;94.10;;;;;;5051929;28;20347;-65
2021/08/21 03:46:50;;;;;;;;;;;10.00;94.20;;;;;;5050764;28;20389;-65
2021/08/21 03:49:16;;;;;;;;;;;10.10;94.40;;;;;;5051889;28;19923;-64
2021/08/21 03:51:42;;;;;;;;;;;10.10;94.60;;;;;;5051363;28;19913;-65
2021/08/21 03:54:10;;;;;;;;;;;10.20;94.80;;;;;;5051801;28;20003;-64
2021/08/21 03:56:35;;;;;;;;;;;10.30;94.90;;;;;;5051586;28;19963;-63
2021/08/21 03:59:04;;;;;;;;;;;10.30;94.80;;;;;;5051232;28;19917;-65
2021/08/21 04:01:32;;;;;;;;;;;10.40;94.90;;;;;;5051992;28;20429;-65
2021/08/21 04:04:06;;;;;;;;;;;10.50;95.00;;;;;;5051763;28;20018;-65
2021/08/21 04:06:39;;;;;;;;;;;10.60;95.00;;;;;;5051482;28;19924;-65
2021/08/21 04:09:07;;;;;;;;;;;10.70;95.00;;;;;;5050966;28;19924;-65
2021/08/21 04:11:36;;;;;;;;;;;10.80;94.90;;;;;;5051228;28;19920;-64
2021/08/21 04:14:12;;;;;;;;;;;10.90;94.90;;;;;;5052392;28;19917;-64
2021/08/21 04:16:38;;;;;;;;;;;10.90;94.90;;;;;;5051188;28;19924;-63
2021/08/21 04:19:05;;;;;;;;;;;11.00;94.90;;;;;;5051255;28;19916;-64
2021/08/21 04:21:35;;;;;;;;;;;11.10;95.00;;;;;;5050702;28;19912;-65
2021/08/21 04:24:05;;;;;;;;;;;11.20;95.00;;;;;;5051192;28;19974;-65
2021/08/21 04:26:31;;;;;;;;;;;11.20;95.00;;;;;;5067385;28;20350;-64
2021/08/21 04:28:58;;;;;;;;;;;11.20;94.90;;;;;;5050792;28;19916;-65
2021/08/21 04:31:25;;;;;;;;;;;11.30;94.90;;;;;;5051135;28;19917;-65
2021/08/21 04:33:50;;;;;;;;;;;11.40;95.00;;;;;;5050551;28;20400;-64
2021/08/21 04:36:16;;;;;;;;;;;11.40;95.00;;;;;;5050923;28;19920;-65
2021/08/21 04:38:41;;;;;;;;;;;11.50;94.90;;;;;;5050645;28;20000;-65
2021/08/21 04:41:08;;;;;;;;;;;11.50;94.90;;;;;;5050693;28;20266;-65
2021/08/21 04:43:34;;;;;;;;;;;11.50;94.80;;;;;;5050775;28;19917;-65
2021/08/21 04:46:00;;;;;;;;;;;11.60;94.90;;;;;;5050241;28;19923;-65
2021/08/21 04:48:26;;;;;;;;;;;11.60;95.00;;;;;;5050432;28;20394;-65
2021/08/21 04:50:52;;;;;;;;;;;11.60;95.00;;;;;;5050838;28;19917;-64
2021/08/21 04:53:19;;;;;;;;;;;11.70;95.00;;;;;;5050433;28;20263;-65
2021/08/21 04:55:45;;;;;;;;;;;11.70;95.00;;;;;;5052102;28;19939;-65
2021/08/21 04:58:13;;;;;;;;;;;11.80;95.00;;;;;;5050289;28;19942;-65
2021/08/21 05:00:39;;;;;;;;;;;11.80;94.90;;;;;;5050284;28;19948;-65
2021/08/21 05:03:14;;;;;;;;;;;11.90;94.80;;;;;;5050531;28;20320;-65
2021/08/21 05:05:41;;;;;;;;;;;11.80;94.80;;;;;;5050235;28;19917;-63
2021/08/21 05:08:07;;;;;;;;;;;11.90;94.90;;;;;;5050292;28;19996;-65
2021/08/21 05:10:33;;;;;;;;;;;11.90;94.90;;;;;;5049903;28;19932;-65
2021/08/21 05:13:00;;;;;;;;;;;12.00;95.20;;;;;;5050504;28;20021;-65
2021/08/21 05:15:26;;;;;;;;;;;12.10;95.20;;;;;;5049919;28;19916;-65
2021/08/21 05:18:24;;;;;;;;;;;12.20;95.10;;;;;;5051080;28;19917;-65
2021/08/21 05:20:54;;;;;;;;;;;12.20;95.10;;;;;;5067026;28;19923;-65
2021/08/21 05:23:21;;;;;;;;;;;12.30;95.10;;;;;;5051146;28;20438;-65
2021/08/21 05:25:48;;;;;;;;;;;12.40;95.00;;;;;;5050326;28;19917;-64
2021/08/21 05:28:14;;;;;;;;;;;12.50;95.50;;;;;;5050997;28;19920;-65
2021/08/21 05:30:41;;;;;;;;;;;12.70;95.60;;;;;;5050071;28;20369;-64
2021/08/21 05:33:10;;;;;;;;;;;12.90;95.40;;;;;;5051501;28;19944;-64
2021/08/21 05:35:35;;;;;;;;;;;13.00;95.30;;;;;;5049797;28;19932;-64
2021/08/21 05:38:01;;;;;;;;;;;13.10;95.40;;;;;;5051195;28;19916;-65
2021/08/21 05:40:26;;;;;;;;;;;13.20;95.00;;;;;;5051083;28;20000;-64
2021/08/21 05:42:52;;;;;;;;;;;13.30;95.40;;;;;;5051263;28;19921;-65
2021/08/21 05:45:18;;;;;;;;;;;13.80;96.30;;;;;;5051436;28;20007;-67
2021/08/21 05:47:45;;;;;;;;;;;14.90;97.90;;;;;;5050679;28;19936;-65
2021/08/21 05:50:11;;;;;;;;;;;16.30;98.90;;;;;;5051404;28;19955;-64
2021/08/21 05:52:37;;;;;;;;;;;17.50;98.10;;;;;;5051589;28;20320;-64
2021/08/21 05:55:02;;;;;;;;;;;17.90;95.20;;;;;;5050975;28;19917;-65
2021/08/21 05:57:39;;;;;;;;;;;18.20;95.40;;;;;;5049511;28;20122;-65
2021/08/21 06:00:06;;;;;;;;;;;18.50;94.80;;;;;;5050774;28;20094;-65
2021/08/21 06:02:38;;;;;;;;;;;18.50;94.20;;;;;;5051350;28;19929;-65
2021/08/21 06:05:04;;;;;;;;;;;18.70;94.60;;;;;;5051154;28;19917;-65
2021/08/21 06:07:30;;;;;;;;;;;19.10;95.10;;;;;;5048631;28;19960;-65
2021/08/21 06:09:57;;;;;;;;;;;19.70;94.80;;;;;;5049554;28;19932;-65
2021/08/21 06:12:23;;;;;;;;;;;20.00;93.80;;;;;;5049327;28;19921;-65
2021/08/21 06:14:48;;;;;;;;;;;20.20;92.80;;;;;;5051031;28;19917;-65
2021/08/21 06:17:14;;;;;;;;;;;20.20;92.00;;;;;;5050440;28;19995;-64
2021/08/21 06:19:39;;;;;;;;;;;20.00;91.20;;;;;;5050695;28;20034;-65
2021/08/21 06:22:07;;;;;;;;;;;19.60;90.90;;;;;;5050765;28;19921;-65
2021/08/21 06:24:32;;;;;;;;;;;19.40;90.70;;;;;;5050882;28;19920;-64
2021/08/21 06:26:58;;;;;;;;;;;19.40;91.20;;;;;;5049947;28;19920;-64
2021/08/21 06:29:24;;;;;;;;;;;19.50;90.60;;;;;;5052819;28;20420;-64
2021/08/21 06:31:50;;;;;;;;;;;19.40;90.00;;;;;;5052590;28;20028;-64
2021/08/21 06:34:15;;;;;;;;;;;19.10;88.50;;;;;;5054572;28;19917;-64
2021/08/21 06:36:41;;;;;;;;;;;19.10;89.30;;;;;;5054188;28;19956;-64
2021/08/21 06:39:07;;;;;;;;;;;19.20;89.80;;;;;;5053711;28;20454;-64
2021/08/21 06:41:32;;;;;;;;;;;19.30;89.00;;;;;;5054272;28;19917;-64
2021/08/21 06:43:59;;;;;;;;;;;19.30;87.30;;;;;;5052996;28;20104;-64
2021/08/21 06:46:40;;;;;;;;;;;19.20;86.80;;;;;;5053518;28;20286;-64
2021/08/21 06:49:06;;;;;;;;;;;19.20;86.80;;;;;;5054324;28;19923;-65
2021/08/21 06:51:31;;;;;;;;;;;19.30;87.20;;;;;;5053655;28;19913;-64
2021/08/21 06:53:57;;;;;;;;;;;19.40;86.90;;;;;;5054014;28;19944;-64
2021/08/21 06:56:23;;;;;;;;;;;19.50;86.60;;;;;;5053724;28;20385;-64
2021/08/21 06:58:49;;;;;;;;;;;19.60;85.70;;;;;;5053660;28;19917;-64
2021/08/21 07:01:14;;;;;;;;;;;19.50;84.80;;;;;;5054043;28;19924;-64
2021/08/21 07:03:40;;;;;;;;;;;19.60;84.70;;;;;;5053557;28;19921;-64
2021/08/21 07:06:06;;;;;;;;;;;19.60;83.90;;;;;;5052127;28;19932;-63
2021/08/21 07:08:32;;;;;;;;;;;19.60;83.30;;;;;;5053348;28;19928;-64
2021/08/21 07:10:57;;;;;;;;;;;19.60;82.90;;;;;;5053228;28;19921;-63
2021/08/21 07:13:24;;;;;;;;;;;19.60;82.70;;;;;;5052479;28;19935;-64
2021/08/21 07:15:50;;;;;;;;;;;19.70;82.70;;;;;;5053746;28;20115;-64
2021/08/21 07:18:16;;;;;;;;;;;19.70;82.20;;;;;;5053017;28;19917;-64
2021/08/21 07:20:41;;;;;;;;;;;19.80;81.60;;;;;;5053584;28;19920;-64
2021/08/21 07:23:07;;;;;;;;;;;20.00;82.70;;;;;;5053191;28;20328;-63
2021/08/21 07:25:32;;;;;;;;;;;20.30;82.50;;;;;;5053204;28;19951;-63
2021/08/21 07:27:58;;;;;;;;;;;20.60;81.90;;;;;;5052836;28;19923;-64
2021/08/21 07:30:24;;;;;;;;;;;20.70;80.20;;;;;;5051533;28;20011;-65
2021/08/21 07:32:49;;;;;;;;;;;20.90;79.90;;;;;;5051431;28;19917;-65
2021/08/21 07:35:15;;;;;;;;;;;21.00;79.20;;;;;;5052473;28;20395;-64
2021/08/21 07:37:40;;;;;;;;;;;21.10;79.00;;;;;;5050957;28;20004;-64
2021/08/21 07:40:07;;;;;;;;;;;21.30;79.50;;;;;;5053201;28;20007;-65
2021/08/21 07:42:32;;;;;;;;;;;21.60;78.50;;;;;;5053186;28;19936;-64
2021/08/21 07:44:58;;;;;;;;;;;21.80;77.10;;;;;;5052674;28;19921;-63
2021/08/21 07:47:23;;;;;;;;;;;22.00;77.50;;;;;;5052690;28;19946;-65
2021/08/21 07:49:49;;;;;;;;;;;22.10;77.00;;;;;;5052504;28;19917;-65
2021/08/21 07:52:14;;;;;;;;;;;22.20;75.10;;;;;;5052387;28;20392;-65
2021/08/21 07:54:40;;;;;;;;;;;22.20;73.90;;;;;;5053153;28;19924;-65
2021/08/21 07:57:05;;;;;;;;;;;22.30;74.20;;;;;;5067537;28;19924;-65
2021/08/21 07:59:31;;;;;;;;;;;22.50;74.20;;;;;;5052856;28;19921;-64
2021/08/21 08:01:56;;;;;;;;;;;22.60;72.80;;;;;;5052763;28;20283;-65
2021/08/21 08:04:22;;;;;;;;;;;22.60;71.70;;;;;;5052597;28;19917;-64
2021/08/21 08:06:48;;;;;;;;;;;22.60;71.00;;;;;;5052475;28;19921;-64
2021/08/21 08:09:13;;;;;;;;;;;22.50;70.50;;;;;;5052699;28;19920;-64
2021/08/21 08:11:39;;;;;;;;;;;22.50;70.00;;;;;;5052662;28;19921;-68
2021/08/21 08:14:04;;;;;;;;;;;22.50;70.20;;;;;;5052558;28;19924;-68
2021/08/21 08:16:30;;;;;;;;;;;22.70;70.60;;;;;;5052694;28;20327;-69
2021/08/21 08:18:55;;;;;;;;;;;22.90;69.70;;;;;;5052069;28;20403;-68
2021/08/21 08:21:21;;;;;;;;;;;22.80;68.70;;;;;;5052551;28;19916;-69
2021/08/21 08:23:47;;;;;;;;;;;22.70;67.40;;;;;;5050752;28;19921;-70
2021/08/21 08:26:13;;;;;;;;;;;22.50;66.90;;;;;;5052278;28;19951;-69
2021/08/21 08:28:38;;;;;;;;;;;22.40;66.90;;;;;;5052003;28;20270;-69
2021/08/21 08:31:04;;;;;;;;;;;22.40;67.30;;;;;;5051786;28;19979;-68
2021/08/21 08:33:30;;;;;;;;;;;22.60;68.00;;;;;;5052341;28;20292;-70
2021/08/21 08:35:55;;;;;;;;;;;22.90;67.30;;;;;;5051790;28;19917;-69
2021/08/21 08:38:21;;;;;;;;;;;23.10;67.00;;;;;;5051825;28;19924;-69
2021/08/21 08:40:47;;;;;;;;;;;23.40;66.30;;;;;;5052021;28;19952;-70
2021/08/21 08:43:13;;;;;;;;;;;23.70;65.50;;;;;;5051383;28;20305;-69
2021/08/21 08:45:40;;;;;;;;;;;24.20;66.50;;;;;;5052405;28;19917;-70
2021/08/21 08:48:06;;;;;;;;;;;24.90;66.20;;;;;;5050397;28;19967;-68
2021/08/21 08:50:33;;;;;;;;;;;25.30;63.30;;;;;;5049082;28;19921;-69
2021/08/21 08:52:58;;;;;;;;;;;25.60;62.20;;;;;;5051523;28;19967;-69
2021/08/21 08:55:24;;;;;;;;;;;26.50;63.40;;;;;;5051080;28;20331;-68
2021/08/21 08:57:50;;;;;;;;;;;28.00;62.50;;;;;;5051612;28;19917;-70
2021/08/21 09:00:20;;;;;;;;;;;28.70;59.20;;;;;;5050317;28;19916;-69
2021/08/21 09:02:53;;;;;;;;;;;29.90;59.10;;;;;;5049979;28;19921;-69
2021/08/21 09:05:20;;;;;;;;;;;31.10;57.60;;;;;;5051395;28;19920;-70
2021/08/21 09:07:48;;;;;;;;;;;31.50;53.80;;;;;;5051289;28;19921;-69
2021/08/21 09:10:15;;;;;;;;;;;31.20;50.90;;;;;;5050798;28;20376;-70
2021/08/21 09:12:41;;;;;;;;;;;30.80;50.10;;;;;;5051325;28;19917;-69
2021/08/21 09:15:19;;;;;;;;;;;30.80;49.40;;;;;;5051231;28;19924;-70
2021/08/21 09:17:57;;;;;;;;;;;30.70;48.70;;;;;;5051396;28;20292;-70
2021/08/21 09:20:23;;;;;;;;;;;30.80;48.20;;;;;;5051118;28;19921;-70
2021/08/21 09:22:49;;;;;;;;;;;31.30;47.80;;;;;;5051469;28;19927;-69
2021/08/21 09:25:26;;;;;;;;;;;32.40;48.90;;;;;;5066400;28;20301;-69
2021/08/21 09:27:52;;;;;;;;;;;33.00;46.00;;;;;;5051231;28;19920;-70
2021/08/21 09:30:18;;;;;;;;;;;32.50;43.60;;;;;;5051456;28;19924;-70
2021/08/21 09:32:43;;;;;;;;;;;31.70;42.30;;;;;;5049380;28;19924;-70
2021/08/21 09:35:10;;;;;;;;;;;30.80;42.00;;;;;;5051400;28;19948;-70
2021/08/21 09:37:49;;;;;;;;;;;30.20;42.20;;;;;;5050845;28;19959;-70
2021/08/21 09:40:27;;;;;;;;;;;29.90;42.60;;;;;;5051342;28;20014;-70
2021/08/21 09:42:53;;;;;;;;;;;29.80;42.80;;;;;;5050902;28;19921;-71
2021/08/21 09:45:22;;;;;;;;;;;30.70;44.40;;;;;;5051449;28;19917;-69
2021/08/21 09:47:47;;;;;;;;;;;31.90;44.60;;;;;;5050736;28;19917;-70
2021/08/21 09:50:17;;;;;;;;;;;33.30;43.20;;;;;;5051334;28;19917;-70
2021/08/21 09:52:46;;;;;;;;;;;34.10;42.40;;;;;;5051346;28;19948;-70
2021/08/21 09:55:18;;;;;;;;;;;35.60;42.40;;;;;;5051022;28;19921;-71
2021/08/21 09:57:56;;;;;;;;;;;36.60;40.40;;;;;;5051119;28;20132;-70
2021/08/21 10:00:22;;;;;;;;;;;37.70;39.40;;;;;;5050782;28;19917;-70
2021/08/21 10:02:47;;;;;;;;;;;38.20;37.20;;;;;;5054921;28;19921;-71
2021/08/21 10:05:13;;;;;;;;;;;38.70;36.70;;;;;;5054671;28;19921;-70
2021/08/21 10:07:43;;;;;;;;;;;39.50;35.80;;;;;;5054704;28;19916;-70
2021/08/21 10:10:10;;;;;;;;;;;40.20;34.40;;;;;;5054914;28;19955;-71
2021/08/21 10:12:37;;;;;;;;;;;40.30;32.80;;;;;;5054657;28;19921;-70
2021/08/21 10:15:03;;;;;;;;;;;40.40;32.40;;;;;;5055050;28;19923;-71
2021/08/21 10:17:29;;;;;;;;;;;41.20;32.70;;;;;;5054277;28;19963;-69
2021/08/21 10:19:55;;;;;;;;;;;42.10;32.00;;;;;;5053586;28;20023;-71
2021/08/21 10:22:24;;;;;;;;;;;42.30;31.00;;;;;;5054801;28;19948;-71
2021/08/21 10:24:52;;;;;;;;;;;42.90;30.80;;;;;;5054752;28;19967;-71
2021/08/21 10:27:53;;;;;;;;;;;43.50;29.90;;;;;;5054532;28;19920;-70
2021/08/21 10:30:25;;;;;;;;;;;44.40;29.70;;;;;;5031678;28;19917;-72
2021/08/21 10:32:58;;;;;;;;;;;44.80;28.70;;;;;;5050870;28;19920;-71
2021/08/21 10:35:39;;;;;;;;;;;44.80;28.20;;;;;;5054343;28;19970;-71
2021/08/21 10:38:25;;;;;;;;;;;45.20;27.00;;;;;;5054477;28;19970;-71
2021/08/21 10:40:50;;;;;;;;;;;44.70;26.80;;;;;;5054206;28;19916;-71
2021/08/21 10:43:17;;;;;;;;;;;44.40;26.10;;;;;;5053247;28;19932;-71
2021/08/21 10:45:44;;;;;;;;;;;43.70;26.10;;;;;;5054141;28;20384;-71
2021/08/21 10:48:13;;;;;;;;;;;43.70;26.90;;;;;;5054310;28;19913;-70
2021/08/21 10:50:43;;;;;;;;;;;43.90;26.10;;;;;;5054334;28;20388;-71
2021/08/21 10:53:17;;;;;;;;;;;43.60;26.00;;;;;;5053698;28;20353;-71
2021/08/21 10:55:43;;;;;;;;;;;43.90;26.50;;;;;;5053022;28;19927;-70
2021/08/21 10:58:11;;;;;;;;;;;44.30;26.50;;;;;;5052285;28;20007;-70
2021/08/21 11:00:40;;;;;;;;;;;44.60;26.00;;;;;;5054051;28;19917;-71
2021/08/21 11:03:06;;;;;;;;;;;44.90;26.50;;;;;;5053970;28;19921;-71
2021/08/21 11:05:50;;;;;;;;;;;45.40;26.20;;;;;;5053943;28;20274;-71
2021/08/21 11:08:16;;;;;;;;;;;46.00;26.20;;;;;;5053556;28;19963;-71
2021/08/21 11:10:42;;;;;;;;;;;46.60;25.80;;;;;;5053901;28;19921;-71
2021/08/21 11:13:09;;;;;;;;;;;46.90;25.50;;;;;;5053392;28;19924;-71
2021/08/21 11:15:35;;;;;;;;;;;47.20;25.20;;;;;;5053446;28;19917;-71
2021/08/21 11:18:02;;;;;;;;;;;47.40;25.10;;;;;;5053729;28;20278;-71
2021/08/21 11:20:29;;;;;;;;;;;47.30;24.10;;;;;;5053364;28;19916;-70
2021/08/21 11:23:07;;;;;;;;;;;46.30;23.50;;;;;;5053763;28;19925;-70
2021/08/21 11:25:36;;;;;;;;;;;45.70;24.20;;;;;;5053661;28;19920;-71
2021/08/21 11:28:02;;;;;;;;;;;45.70;24.70;;;;;;5051741;28;20357;-71
2021/08/21 11:30:28;;;;;;;;;;;46.10;24.70;;;;;;5053696;28;20331;-70
2021/08/21 11:33:01;;;;;;;;;;;46.70;24.70;;;;;;5053515;28;19920;-72
2021/08/21 11:35:31;;;;;;;;;;;47.30;24.50;;;;;;5053196;28;20377;-71
2021/08/21 11:38:26;;;;;;;;;;;47.60;24.20;;;;;;5053315;28;19924;-71
2021/08/21 11:40:53;;;;;;;;;;;47.80;24.00;;;;;;5043853;28;19921;-70
2021/08/21 11:43:26;;;;;;;;;;;47.60;23.20;;;;;;5053424;28;19921;-71
2021/08/21 11:45:52;;;;;;;;;;;47.20;23.50;;;;;;5053173;28;19959;-69
2021/08/21 11:48:17;;;;;;;;;;;47.00;23.40;;;;;;5052946;28;19917;-70
2021/08/21 11:50:44;;;;;;;;;;;44.60;22.30;;;;;;5053314;28;19931;-70
2021/08/21 11:53:20;;;;;;;;;;;40.40;22.70;;;;;;5052667;28;20385;-70
2021/08/21 11:55:46;;;;;;;;;;;37.70;25.10;;;;;;5053178;28;20289;-69
2021/08/21 11:58:12;;;;;;;;;;;37.70;26.70;;;;;;5052226;28;20385;-69
2021/08/21 12:00:40;;;;;;;;;;;38.40;26.70;;;;;;5052499;28;19921;-70
2021/08/21 12:03:08;;;;;;;;;;;38.90;27.00;;;;;;5052781;28;19925;-70
2021/08/21 12:05:44;;;;;;;;;;;39.10;26.00;;;;;;5052540;28;19929;-70
2021/08/21 12:08:13;;;;;;;;;;;37.90;25.80;;;;;;5052518;28;19916;-68
2021/08/21 12:10:52;;;;;;;;;;;36.60;26.10;;;;;;5052251;28;19929;-68
2021/08/21 12:13:19;;;;;;;;;;;35.10;26.70;;;;;;5051312;28;20107;-69
2021/08/21 12:15:46;;;;;;;;;;;33.90;27.90;;;;;;5052176;28;19929;-69
2021/08/21 12:18:12;;;;;;;;;;;32.90;27.90;;;;;;5052288;28;20031;-69
2021/08/21 12:20:38;;;;;;;;;;;31.90;28.60;;;;;;5052417;28;19936;-68
2021/08/21 12:23:05;;;;;;;;;;;31.10;29.00;;;;;;5052335;28;20401;-69
2021/08/21 12:25:49;;;;;;;;;;;30.30;29.70;;;;;;5051278;28;19913;-69
2021/08/21 12:28:16;;;;;;;;;;;29.80;30.50;;;;;;5051938;28;20419;-68
2021/08/21 12:30:52;;;;;;;;;;;29.40;31.40;;;;;;5052586;28;19921;-69
2021/08/21 12:33:17;;;;;;;;;;;29.20;31.90;;;;;;5051615;28;19924;-69
2021/08/21 12:35:43;;;;;;;;;;;29.10;32.40;;;;;;5052409;28;19916;-68
2021/08/21 12:38:08;;;;;;;;;;;29.30;33.20;;;;;;5052525;28;19913;-68
2021/08/21 12:40:34;;;;;;;;;;;29.90;33.40;;;;;;5052893;28;19928;-68
2021/08/21 12:43:01;;;;;;;;;;;30.20;32.20;;;;;;5050885;28;19921;-69
2021/08/21 12:45:26;;;;;;;;;;;30.20;32.80;;;;;;5052032;28;19917;-69
2021/08/21 12:47:52;;;;;;;;;;;30.70;33.30;;;;;;5052035;28;19923;-67
2021/08/21 12:50:18;;;;;;;;;;;31.40;33.20;;;;;;5052009;28;19946;-69
2021/08/21 12:52:58;;;;;;;;;;;31.90;32.60;;;;;;5051512;28;20403;-68
2021/08/21 12:55:24;;;;;;;;;;;31.90;32.00;;;;;;5051479;28;19925;-69
2021/08/21 12:58:01;;;;;;;;;;;31.40;31.20;;;;;;5066615;28;20340;-69
2021/08/21 13:00:27;;;;;;;;;;;30.60;31.30;;;;;;5051690;28;19979;-68
2021/08/21 13:02:55;;;;;;;;;;;29.70;31.80;;;;;;5051592;28;20365;-67
2021/08/21 13:05:23;;;;;;;;;;;29.10;32.30;;;;;;5052011;28;19917;-68
2021/08/21 13:07:49;;;;;;;;;;;28.60;33.30;;;;;;5050482;28;20270;-68
2021/08/21 13:10:16;;;;;;;;;;;28.30;33.40;;;;;;5049920;28;20278;-68
2021/08/21 13:12:43;;;;;;;;;;;28.00;33.70;;;;;;5051336;28;19923;-68
2021/08/21 13:15:09;;;;;;;;;;;27.70;34.00;;;;;;5051177;28;19917;-68
2021/08/21 13:17:35;;;;;;;;;;;27.40;34.40;;;;;;5050774;28;19917;-68
2021/08/21 13:20:01;;;;;;;;;;;27.10;34.50;;;;;;5049260;28;19924;-68
2021/08/21 13:22:30;;;;;;;;;;;26.80;34.80;;;;;;5050967;28;19921;-68
2021/08/21 13:24:56;;;;;;;;;;;26.70;35.30;;;;;;5051660;28;20440;-68
2021/08/21 13:27:22;;;;;;;;;;;26.80;35.30;;;;;;5051130;28;19966;-68
2021/08/21 13:29:47;;;;;;;;;;;26.70;35.30;;;;;;5051164;28;19924;-68
2021/08/21 13:32:13;;;;;;;;;;;26.60;35.70;;;;;;5051384;28;19960;-68
2021/08/21 13:34:38;;;;;;;;;;;26.50;35.90;;;;;;5050979;28;19917;-68
2021/08/21 13:37:07;;;;;;;;;;;26.50;36.40;;;;;;5050698;28;19966;-69
2021/08/21 13:39:32;;;;;;;;;;;26.30;36.50;;;;;;5051297;28;19917;-68
2021/08/21 13:41:58;;;;;;;;;;;26.10;36.70;;;;;;5049392;28;20301;-67
2021/08/21 13:44:23;;;;;;;;;;;25.90;37.10;;;;;;5051294;28;19921;-66
2021/08/21 13:46:49;;;;;;;;;;;25.60;37.80;;;;;;5066482;28;19924;-68
2021/08/21 13:49:15;;;;;;;;;;;25.60;38.30;;;;;;5050879;28;20062;-68
2021/08/21 13:51:41;;;;;;;;;;;25.50;38.40;;;;;;5051005;28;19917;-68
2021/08/21 13:54:06;;;;;;;;;;;25.40;38.70;;;;;;5050899;28;19974;-68
2021/08/21 13:56:32;;;;;;;;;;;25.20;39.70;;;;;;5051123;28;19916;-68
2021/08/21 13:58:58;;;;;;;;;;;25.10;39.30;;;;;;5051005;28;19916;-68
2021/08/21 14:01:24;;;;;;;;;;;25.00;39.60;;;;;;5049414;28;20492;-68
2021/08/21 14:03:49;;;;;;;;;;;24.80;40.00;;;;;;5051083;28;19921;-69
2021/08/21 14:06:15;;;;;;;;;;;24.80;40.40;;;;;;5051126;28;19923;-68
2021/08/21 14:08:40;;;;;;;;;;;24.80;40.80;;;;;;5050425;28;19921;-67
2021/08/21 14:11:06;;;;;;;;;;;24.60;41.10;;;;;;5051121;28;19921;-63
2021/08/21 14:13:32;;;;;;;;;;;24.60;41.80;;;;;;5050833;28;19924;-63
2021/08/21 14:15:58;;;;;;;;;;;24.60;42.10;;;;;;5051104;28;20308;-62
2021/08/21 14:18:23;;;;;;;;;;;24.60;42.30;;;;;;5050822;28;19945;-63
2021/08/21 14:20:49;;;;;;;;;;;24.60;42.20;;;;;;5050360;28;20012;-63